sensor_id;sensor_type;location;lat;lon;timestamp;pressure;altitude;pressure_sealevel;temperature;humidity
48077;BME280;33854;57.708;12.008;2023-03-04T00:00:55;99370.28;;;2.91;100.00
48077;BME280;33854;57.708;12.008;2023-03-04T00:03:21;99375.50;;;2.89;100.00
48077;BME280;33854;57.708;12.008;2023-03-04T00:05:46;99387.72;;;2.84;100.00
48077;BME280;33854;57.708;12.008;2023-03-04T00:08:12;99387.84;;;2.81;100.00
48077;BME280;33854;57.708;12.008;2023-03-04T00:10:37;99377.03;;;2.70;100.00
48077;BME280;33854;57.708;12.008;2023-03-04T00:13:03;99364.97;;;2.72;100.00
48077;BME280;33854;57.708;12.008;2023-03-04T00:15:28;99394.66;;;2.82;100.00
48077;BME280;33854;57.708;12.008;2023-03-04T00:17:53;99412.00;;;2.77;100.00
48077;BME280;33854;57.708;12.008;2023-03-04T00:20:19;99412.97;;;2.74;100.00
48077;BME280;33854;57.708;12.008;2023-03-04T00:22:44;99417.47;;;2.68;100.00
48077;BME280;33854;57.708;12.008;2023-03-04T00:25:10;99431.38;;;2.64;100.00
48077;BME280;33854;57.708;12.008;2023-03-04T00:27:35;99429.91;;;2.57;100.00
48077;BME280;33854;57.708;12.008;2023-03-04T00:30:01;99426.66;;;2.52;100.00
48077;BME280;33854;57.708;12.008;2023-03-04T00:32:26;99439.72;;;2.46;100.00
48077;BME280;33854;57.708;12.008;2023-03-04T00:34:51;99440.91;;;2.36;100.00
48077;BME280;33854;57.708;12.008;2023-03-04T00:37:17;99441.94;;;2.30;100.00
48077;BME280;33854;57.708;12.008;2023-03-04T00:39:42;99463.59;;;2.24;100.00
48077;BME280;33854;57.708;12.008;2023-03-04T00:42:08;99474.22;;;2.14;100.00
48077;BME280;33854;57.708;12.008;2023-03-04T00:44:33;99477.94;;;2.05;100.00
48077;BME280;33854;57.708;12.008;2023-03-04T00:46:58;99475.63;;;1.98;100.00
48077;BME280;33854;57.708;12.008;2023-03-04T00:49:24;99479.31;;;1.89;100.00
48077;BME280;33854;57.708;12.008;2023-03-04T00:51:50;99498.22;;;1.87;100.00
48077;BME280;33854;57.708;12.008;2023-03-04T00:54:15;99531.06;;;1.79;100.00
48077;BME280;33854;57.708;12.008;2023-03-04T00:56:41;99531.34;;;1.69;100.00
48077;BME280;33854;57.708;12.008;2023-03-04T00:59:06;99538.56;;;1.57;100.00
48077;BME280;33854;57.708;12.008;2023-03-04T01:01:31;99543.97;;;1.48;100.00
48077;BME280;33854;57.708;12.008;2023-03-04T01:03:57;99525.22;;;1.44;100.00
48077;BME280;33854;57.708;12.008;2023-03-04T01:06:22;99516.84;;;1.38;100.00
48077;BME280;33854;57.708;12.008;2023-03-04T01:08:48;99545.75;;;1.46;100.00
48077;BME280;33854;57.708;12.008;2023-03-04T01:11:13;99561.38;;;1.38;100.00
48077;BME280;33854;57.708;12.008;2023-03-04T01:13:39;99550.44;;;1.32;100.00
48077;BME280;33854;57.708;12.008;2023-03-04T01:16:05;99576.72;;;1.41;100.00
48077;BME280;33854;57.708;12.008;2023-03-04T01:18:31;99573.13;;;1.47;100.00
48077;BME280;33854;57.708;12.008;2023-03-04T01:20:56;99583.06;;;1.60;100.00
48077;BME280;33854;57.708;12.008;2023-03-04T01:23:22;99629.03;;;1.71;100.00
48077;BME280;33854;57.708;12.008;2023-03-04T01:25:48;99716.16;;;1.83;100.00
48077;BME280;33854;57.708;12.008;2023-03-04T01:28:13;99806.94;;;1.88;100.00
48077;BME280;33854;57.708;12.008;2023-03-04T01:30:38;99929.31;;;1.98;100.00
48077;BME280;33854;57.708;12.008;2023-03-04T01:33:04;99975.63;;;1.98;100.00
48077;BME280;33854;57.708;12.008;2023-03-04T01:35:29;99990.19;;;1.99;100.00
48077;BME280;33854;57.708;12.008;2023-03-04T01:37:55;100027.88;;;2.02;100.00
48077;BME280;33854;57.708;12.008;2023-03-04T01:40:20;100031.31;;;2.02;100.00
48077;BME280;33854;57.708;12.008;2023-03-04T01:42:46;100066.47;;;2.02;100.00
48077;BME280;33854;57.708;12.008;2023-03-04T01:45:16;100099.31;;;1.92;100.00
48077;BME280;33854;57.708;12.008;2023-03-04T01:47:44;100150.56;;;2.01;100.00
48077;BME280;33854;57.708;12.008;2023-03-04T01:50:19;100243.16;;;2.04;100.00
48077;BME280;33854;57.708;12.008;2023-03-04T01:52:46;100286.06;;;2.04;100.00
48077;BME280;33854;57.708;12.008;2023-03-04T01:55:17;100292.91;;;2.05;100.00
48077;BME280;33854;57.708;12.008;2023-03-04T01:57:45;100294.72;;;1.98;100.00
48077;BME280;33854;57.708;12.008;2023-03-04T02:02:45;100312.94;;;1.89;100.00
48077;BME280;33854;57.708;12.008;2023-03-04T02:05:11;100336.16;;;1.86;100.00
48077;BME280;33854;57.708;12.008;2023-03-04T02:07:37;100345.59;;;1.86;100.00
48077;BME280;33854;57.708;12.008;2023-03-04T02:10:03;100349.97;;;1.81;100.00
48077;BME280;33854;57.708;12.008;2023-03-04T02:12:29;100333.78;;;1.72;100.00
48077;BME280;33854;57.708;12.008;2023-03-04T02:14:54;100327.00;;;1.67;100.00
48077;BME280;33854;57.708;12.008;2023-03-04T02:17:26;100317.72;;;1.60;100.00
48077;BME280;33854;57.708;12.008;2023-03-04T02:22:39;100299.19;;;1.40;100.00
48077;BME280;33854;57.708;12.008;2023-03-04T02:25:10;100314.63;;;1.38;100.00
48077;BME280;33854;57.708;12.008;2023-03-04T02:27:38;100330.97;;;1.33;100.00
48077;BME280;33854;57.708;12.008;2023-03-04T02:30:04;100343.84;;;1.33;100.00
48077;BME280;33854;57.708;12.008;2023-03-04T02:32:30;100349.88;;;1.30;100.00
48077;BME280;33854;57.708;12.008;2023-03-04T02:34:55;100349.03;;;1.30;100.00
48077;BME280;33854;57.708;12.008;2023-03-04T02:37:21;100356.78;;;1.27;100.00
48077;BME280;33854;57.708;12.008;2023-03-04T02:39:47;100361.06;;;1.28;100.00
48077;BME280;33854;57.708;12.008;2023-03-04T02:42:14;100382.41;;;1.33;100.00
48077;BME280;33854;57.708;12.008;2023-03-04T02:44:42;100384.94;;;1.36;100.00
48077;BME280;33854;57.708;12.008;2023-03-04T02:47:11;100377.38;;;1.25;100.00
48077;BME280;33854;57.708;12.008;2023-03-04T02:49:38;100431.94;;;1.44;100.00
48077;BME280;33854;57.708;12.008;2023-03-04T02:52:05;100444.78;;;1.47;100.00
48077;BME280;33854;57.708;12.008;2023-03-04T02:54:32;100456.75;;;1.48;100.00
48077;BME280;33854;57.708;12.008;2023-03-04T02:57:00;100468.75;;;1.49;100.00
48077;BME280;33854;57.708;12.008;2023-03-04T02:59:26;100473.09;;;1.44;100.00
48077;BME280;33854;57.708;12.008;2023-03-04T03:01:52;100468.84;;;1.43;100.00
48077;BME280;33854;57.708;12.008;2023-03-04T03:04:19;100473.16;;;1.39;100.00
48077;BME280;33854;57.708;12.008;2023-03-04T03:06:46;100472.34;;;1.36;100.00
48077;BME280;33854;57.708;12.008;2023-03-04T03:09:11;100486.13;;;1.32;100.00
48077;BME280;33854;57.708;12.008;2023-03-04T03:11:37;100504.19;;;1.26;100.00
48077;BME280;33854;57.708;12.008;2023-03-04T03:14:02;100520.53;;;1.19;100.00
48077;BME280;33854;57.708;12.008;2023-03-04T03:16:28;100536.00;;;1.15;100.00
48077;BME280;33854;57.708;12.008;2023-03-04T03:18:54;100556.59;;;1.14;100.00
48077;BME280;33854;57.708;12.008;2023-03-04T03:21:19;100589.94;;;1.19;100.00
48077;BME280;33854;57.708;12.008;2023-03-04T03:23:45;100607.97;;;1.15;100.00
48077;BME280;33854;57.708;12.008;2023-03-04T03:26:10;100624.22;;;1.19;100.00
48077;BME280;33854;57.708;12.008;2023-03-04T03:28:36;100644.84;;;1.14;100.00
48077;BME280;33854;57.708;12.008;2023-03-04T03:31:01;100646.59;;;1.08;100.00
48077;BME280;33854;57.708;12.008;2023-03-04T03:33:27;100672.28;;;1.09;100.00
48077;BME280;33854;57.708;12.008;2023-03-04T03:35:52;100690.28;;;1.08;100.00
48077;BME280;33854;57.708;12.008;2023-03-04T03:38:18;100694.56;;;1.07;100.00
48077;BME280;33854;57.708;12.008;2023-03-04T03:40:43;100690.41;;;0.94;100.00
48077;BME280;33854;57.708;12.008;2023-03-04T03:43:09;100711.72;;;1.07;100.00
48077;BME280;33854;57.708;12.008;2023-03-04T03:45:35;100744.22;;;1.12;100.00
48077;BME280;33854;57.708;12.008;2023-03-04T03:48:00;100745.13;;;1.05;100.00
48077;BME280;33854;57.708;12.008;2023-03-04T03:50:26;100746.81;;;1.06;100.00
48077;BME280;33854;57.708;12.008;2023-03-04T03:52:53;100755.44;;;1.02;100.00
48077;BME280;33854;57.708;12.008;2023-03-04T03:55:18;100739.22;;;0.93;100.00
48077;BME280;33854;57.708;12.008;2023-03-04T03:57:44;100760.59;;;1.02;100.00
48077;BME280;33854;57.708;12.008;2023-03-04T04:00:10;100759.75;;;0.96;100.00
48077;BME280;33854;57.708;12.008;2023-03-04T04:02:35;100765.75;;;0.99;100.00
48077;BME280;33854;57.708;12.008;2023-03-04T04:05:01;100770.91;;;0.96;100.00
48077;BME280;33854;57.708;12.008;2023-03-04T04:07:26;100765.78;;;0.90;100.00
48077;BME280;33854;57.708;12.008;2023-03-04T04:09:51;100768.38;;;0.89;100.00
48077;BME280;33854;57.708;12.008;2023-03-04T04:12:18;100782.06;;;0.89;100.00
48077;BME280;33854;57.708;12.008;2023-03-04T04:14:44;100776.94;;;0.83;100.00
48077;BME280;33854;57.708;12.008;2023-03-04T04:17:10;100782.13;;;0.80;100.00
48077;BME280;33854;57.708;12.008;2023-03-04T04:19:35;100788.13;;;0.79;100.00
48077;BME280;33854;57.708;12.008;2023-03-04T04:22:02;100787.28;;;0.80;100.00
48077;BME280;33854;57.708;12.008;2023-03-04T04:24:27;100783.84;;;0.80;100.00
48077;BME280;33854;57.708;12.008;2023-03-04T04:26:53;100793.28;;;0.75;100.00
48077;BME280;33854;57.708;12.008;2023-03-04T04:29:18;100794.16;;;0.69;100.00
48077;BME280;33854;57.708;12.008;2023-03-04T04:31:44;100800.16;;;0.71;100.00
48077;BME280;33854;57.708;12.008;2023-03-04T04:34:09;100784.81;;;0.56;100.00
48077;BME280;33854;57.708;12.008;2023-03-04T04:36:35;100789.94;;;0.57;100.00
48077;BME280;33854;57.708;12.008;2023-03-04T04:39:01;100799.38;;;0.55;100.00
48077;BME280;33854;57.708;12.008;2023-03-04T04:41:30;100795.13;;;0.51;100.00
48077;BME280;33854;57.708;12.008;2023-03-04T04:43:56;100802.81;;;0.53;100.00
48077;BME280;33854;57.708;12.008;2023-03-04T04:46:22;100772.91;;;0.38;100.00
48077;BME280;33854;57.708;12.008;2023-03-04T04:48:48;100809.69;;;0.45;100.00
48077;BME280;33854;57.708;12.008;2023-03-04T04:51:14;100801.16;;;0.35;100.00
48077;BME280;33854;57.708;12.008;2023-03-04T04:53:40;100807.16;;;0.30;100.00
48077;BME280;33854;57.708;12.008;2023-03-04T04:56:13;100807.19;;;0.24;100.00
48077;BME280;33854;57.708;12.008;2023-03-04T04:58:39;100809.75;;;0.27;100.00
48077;BME280;33854;57.708;12.008;2023-03-04T05:01:05;100821.72;;;0.26;100.00
48077;BME280;33854;57.708;12.008;2023-03-04T05:03:32;100826.88;;;0.28;100.00
48077;BME280;33854;57.708;12.008;2023-03-04T05:05:58;100829.41;;;0.32;100.00
48077;BME280;33854;57.708;12.008;2023-03-04T05:08:24;100823.41;;;0.35;100.00
48077;BME280;33854;57.708;12.008;2023-03-04T05:10:51;100832.00;;;0.31;100.00
48077;BME280;33854;57.708;12.008;2023-03-04T05:13:16;100832.84;;;0.27;100.00
48077;BME280;33854;57.708;12.008;2023-03-04T05:15:43;100843.13;;;0.27;100.00
48077;BME280;33854;57.708;12.008;2023-03-04T05:18:09;100847.38;;;0.29;100.00
48077;BME280;33854;57.708;12.008;2023-03-04T05:20:34;100847.38;;;0.29;100.00
48077;BME280;33854;57.708;12.008;2023-03-04T05:23:00;100857.66;;;0.29;100.00
48077;BME280;33854;57.708;12.008;2023-03-04T05:25:25;100866.22;;;0.22;100.00
48077;BME280;33854;57.708;12.008;2023-03-04T05:27:51;100872.22;;;0.24;100.00
48077;BME280;33854;57.708;12.008;2023-03-04T05:30:16;100875.63;;;0.25;100.00
48077;BME280;33854;57.708;12.008;2023-03-04T05:32:42;100883.34;;;0.25;100.00
48077;BME280;33854;57.708;12.008;2023-03-04T05:35:07;100877.38;;;0.14;100.00
48077;BME280;33854;57.708;12.008;2023-03-04T05:37:33;100881.63;;;0.18;100.00
48077;BME280;33854;57.708;12.008;2023-03-04T05:39:59;100886.78;;;0.16;100.00
48077;BME280;33854;57.708;12.008;2023-03-04T05:42:24;100900.44;;;0.18;100.00
48077;BME280;33854;57.708;12.008;2023-03-04T05:44:49;100896.19;;;0.16;100.00
48077;BME280;33854;57.708;12.008;2023-03-04T05:47:15;100901.31;;;0.13;100.00
48077;BME280;33854;57.708;12.008;2023-03-04T05:49:40;100917.56;;;0.12;100.00
48077;BME280;33854;57.708;12.008;2023-03-04T05:52:06;100921.84;;;0.10;100.00
48077;BME280;33854;57.708;12.008;2023-03-04T05:54:32;100910.72;;;0.02;100.00
48077;BME280;33854;57.708;12.008;2023-03-04T05:56:57;100915.00;;;0.01;100.00
48077;BME280;33854;57.708;12.008;2023-03-04T05:59:23;100915.03;;;-0.04;100.00
48077;BME280;33854;57.708;12.008;2023-03-04T06:01:49;100919.28;;;-0.06;100.00
48077;BME280;33854;57.708;12.008;2023-03-04T06:04:14;100920.13;;;-0.05;100.00
48077;BME280;33854;57.708;12.008;2023-03-04T06:06:40;100925.28;;;-0.07;100.00
48077;BME280;33854;57.708;12.008;2023-03-04T06:09:05;100921.00;;;-0.03;100.00
48077;BME280;33854;57.708;12.008;2023-03-04T06:11:31;100924.41;;;-0.04;100.00
48077;BME280;33854;57.708;12.008;2023-03-04T06:13:56;100927.84;;;-0.07;100.00
48077;BME280;33854;57.708;12.008;2023-03-04T06:16:22;100931.28;;;-0.09;100.00
48077;BME280;33854;57.708;12.008;2023-03-04T06:18:47;100936.38;;;-0.08;100.00
48077;BME280;33854;57.708;12.008;2023-03-04T06:21:13;100942.38;;;-0.12;100.00
48077;BME280;33854;57.708;12.008;2023-03-04T06:23:38;100948.38;;;-0.13;100.00
48077;BME280;33854;57.708;12.008;2023-03-04T06:26:04;100953.47;;;-0.11;100.00
48077;BME280;33854;57.708;12.008;2023-03-04T06:28:33;100950.94;;;-0.10;100.00
48077;BME280;33854;57.708;12.008;2023-03-04T06:30:59;100959.47;;;-0.08;100.00
48077;BME280;33854;57.708;12.008;2023-03-04T06:33:24;100954.34;;;-0.06;100.00
48077;BME280;33854;57.708;12.008;2023-03-04T06:35:55;100967.19;;;-0.03;100.00
48077;BME280;33854;57.708;12.008;2023-03-04T06:38:21;100967.19;;;-0.03;100.00
48077;BME280;33854;57.708;12.008;2023-03-04T06:40:46;100948.38;;;-0.10;100.00
48077;BME280;33854;57.708;12.008;2023-03-04T06:43:12;100977.44;;;0.02;100.00
48077;BME280;33854;57.708;12.008;2023-03-04T06:45:37;100982.56;;;0.06;100.00
48077;BME280;33854;57.708;12.008;2023-03-04T06:48:03;100977.44;;;0.05;100.00
48077;BME280;33854;57.708;12.008;2023-03-04T06:50:29;100975.72;;;-0.03;100.00
48077;BME280;33854;57.708;12.008;2023-03-04T06:52:57;100980.00;;;0.03;100.00
48077;BME280;33854;57.708;12.008;2023-03-04T06:55:23;100999.69;;;0.13;100.00
48077;BME280;33854;57.708;12.008;2023-03-04T06:57:48;100996.28;;;0.16;100.00
48077;BME280;33854;57.708;12.008;2023-03-04T07:00:14;100994.53;;;0.15;100.00
48077;BME280;33854;57.708;12.008;2023-03-04T07:02:40;100996.28;;;0.16;100.00
48077;BME280;33854;57.708;12.008;2023-03-04T07:05:06;100998.00;;;0.20;100.00
48077;BME280;33854;57.708;12.008;2023-03-04T07:07:33;100996.28;;;0.19;100.00
48077;BME280;33854;57.708;12.008;2023-03-04T07:09:58;101012.53;;;0.24;100.00
48077;BME280;33854;57.708;12.008;2023-03-04T07:12:24;101005.69;;;0.26;100.00
48077;BME280;33854;57.708;12.008;2023-03-04T07:14:49;101006.53;;;0.25;100.00
48077;BME280;33854;57.708;12.008;2023-03-04T07:17:14;101013.41;;;0.26;100.00
48077;BME280;33854;57.708;12.008;2023-03-04T07:19:40;101006.53;;;0.26;100.00
48077;BME280;33854;57.708;12.008;2023-03-04T07:22:06;101003.09;;;0.29;100.00
48077;BME280;33854;57.708;12.008;2023-03-04T07:24:31;101000.53;;;0.32;100.00
48077;BME280;33854;57.708;12.008;2023-03-04T07:26:57;101027.94;;;0.39;100.00
48077;BME280;33854;57.708;12.008;2023-03-04T07:29:22;101030.50;;;0.39;100.00
48077;BME280;33854;57.708;12.008;2023-03-04T07:31:48;101023.66;;;0.44;100.00
48077;BME280;33854;57.708;12.008;2023-03-04T07:34:13;101018.50;;;0.50;100.00
48077;BME280;33854;57.708;12.008;2023-03-04T07:36:39;101021.94;;;0.52;100.00
48077;BME280;33854;57.708;12.008;2023-03-04T07:39:06;101031.34;;;0.57;100.00
48077;BME280;33854;57.708;12.008;2023-03-04T07:41:32;101033.91;;;0.59;100.00
48077;BME280;33854;57.708;12.008;2023-03-04T07:44:01;101022.81;;;0.63;100.00
48077;BME280;33854;57.708;12.008;2023-03-04T07:46:27;101043.31;;;0.77;100.00
48077;BME280;33854;57.708;12.008;2023-03-04T07:48:54;101035.59;;;0.81;100.00
48077;BME280;33854;57.708;12.008;2023-03-04T07:51:21;101035.59;;;0.89;100.00
48077;BME280;33854;57.708;12.008;2023-03-04T07:53:49;101015.88;;;0.83;100.00
48077;BME280;33854;57.708;12.008;2023-03-04T07:56:18;101046.69;;;1.01;100.00
48077;BME280;33854;57.708;12.008;2023-03-04T07:58:44;101040.69;;;1.07;100.00
48077;BME280;33854;57.708;12.008;2023-03-04T08:01:15;101036.44;;;1.00;100.00
48077;BME280;33854;57.708;12.008;2023-03-04T08:03:42;101072.38;;;1.17;100.00
48077;BME280;33854;57.708;12.008;2023-03-04T08:06:09;101062.94;;;1.19;100.00
48077;BME280;33854;57.708;12.008;2023-03-04T08:08:36;101064.66;;;1.20;100.00
48077;BME280;33854;57.708;12.008;2023-03-04T08:11:11;101077.47;;;1.21;100.00
48077;BME280;33854;57.708;12.008;2023-03-04T08:13:36;101081.75;;;1.24;100.00
48077;BME280;33854;57.708;12.008;2023-03-04T08:16:02;101088.63;;;1.25;100.00
48077;BME280;33854;57.708;12.008;2023-03-04T08:18:28;101086.06;;;1.26;100.00
48077;BME280;33854;57.708;12.008;2023-03-04T08:20:53;101094.63;;;1.28;100.00
48077;BME280;33854;57.708;12.008;2023-03-04T08:23:19;101093.78;;;1.29;100.00
48077;BME280;33854;57.708;12.008;2023-03-04T08:25:45;101085.22;;;1.26;100.00
48077;BME280;33854;57.708;12.008;2023-03-04T08:28:11;101089.47;;;1.27;100.00
48077;BME280;33854;57.708;12.008;2023-03-04T08:30:40;101086.94;;;1.19;100.00
48077;BME280;33854;57.708;12.008;2023-03-04T08:33:06;101096.34;;;1.25;100.00
48077;BME280;33854;57.708;12.008;2023-03-04T08:35:36;101098.91;;;1.26;100.00
48077;BME280;33854;57.708;12.008;2023-03-04T08:38:02;101096.31;;;1.31;100.00
48077;BME280;33854;57.708;12.008;2023-03-04T08:40:27;101094.63;;;1.31;100.00
48077;BME280;33854;57.708;12.008;2023-03-04T08:42:55;101099.75;;;1.30;100.00
48077;BME280;33854;57.708;12.008;2023-03-04T08:45:20;101114.34;;;1.28;100.00
48077;BME280;33854;57.708;12.008;2023-03-04T08:47:46;101108.31;;;1.33;100.00
48077;BME280;33854;57.708;12.008;2023-03-04T08:50:11;101110.91;;;1.38;100.00
48077;BME280;33854;57.708;12.008;2023-03-04T08:52:37;101099.72;;;1.39;100.00
48077;BME280;33854;57.708;12.008;2023-03-04T08:55:02;101095.44;;;1.42;100.00
48077;BME280;33854;57.708;12.008;2023-03-04T08:57:28;101115.13;;;1.45;100.00
48077;BME280;33854;57.708;12.008;2023-03-04T08:59:53;101106.56;;;1.46;100.00
48077;BME280;33854;57.708;12.008;2023-03-04T09:02:19;101092.84;;;1.41;100.00
48077;BME280;33854;57.708;12.008;2023-03-04T09:04:44;101100.56;;;1.47;100.00
48077;BME280;33854;57.708;12.008;2023-03-04T09:07:10;101092.91;;;1.35;100.00
48077;BME280;33854;57.708;12.008;2023-03-04T09:09:36;101105.72;;;1.48;100.00
48077;BME280;33854;57.708;12.008;2023-03-04T09:12:01;101104.84;;;1.51;100.00
48077;BME280;33854;57.708;12.008;2023-03-04T09:14:27;101112.53;;;1.55;100.00
48077;BME280;33854;57.708;12.008;2023-03-04T09:16:52;101103.94;;;1.65;100.00
48077;BME280;33854;57.708;12.008;2023-03-04T09:19:18;101097.91;;;1.71;100.00
48077;BME280;33854;57.708;12.008;2023-03-04T09:21:43;101102.16;;;1.77;100.00
48077;BME280;33854;57.708;12.008;2023-03-04T09:24:09;101107.34;;;1.72;94.57
48077;BME280;33854;57.708;12.008;2023-03-04T09:26:34;101101.34;;;1.64;96.60
48077;BME280;33854;57.708;12.008;2023-03-04T09:29:01;101091.03;;;1.67;97.65
48077;BME280;33854;57.708;12.008;2023-03-04T09:31:27;101104.78;;;1.64;97.32
48077;BME280;33854;57.708;12.008;2023-03-04T09:33:55;101095.38;;;1.62;98.02
48077;BME280;33854;57.708;12.008;2023-03-04T09:36:21;101109.06;;;1.71;100.00
48077;BME280;33854;57.708;12.008;2023-03-04T09:38:47;101082.44;;;1.74;100.00
48077;BME280;33854;57.708;12.008;2023-03-04T09:41:21;101095.28;;;1.83;99.91
48077;BME280;33854;57.708;12.008;2023-03-04T09:43:48;101094.38;;;1.90;100.00
48077;BME280;33854;57.708;12.008;2023-03-04T09:46:18;101085.78;;;1.93;100.00
48077;BME280;33854;57.708;12.008;2023-03-04T09:48:49;101096.03;;;2.02;99.83
48077;BME280;33854;57.708;12.008;2023-03-04T09:56:50;101076.25;;;2.10;96.19
48077;BME280;33854;57.708;12.008;2023-03-04T09:59:34;101072.78;;;2.15;95.40
48077;BME280;33854;57.708;12.008;2023-03-04T10:02:39;101072.72;;;2.21;94.66
48077;BME280;33854;57.708;12.008;2023-03-04T10:05:12;101047.09;;;2.08;95.77
48077;BME280;33854;57.708;12.008;2023-03-04T10:07:42;101094.19;;;2.23;94.22
48077;BME280;33854;57.708;12.008;2023-03-04T10:12:59;101061.56;;;2.25;94.45
48077;BME280;33854;57.708;12.008;2023-03-04T10:15:40;101071.81;;;2.32;91.39
48077;BME280;33854;57.708;12.008;2023-03-04T10:23:20;101070.69;;;2.64;95.66
48077;BME280;33854;57.708;12.008;2023-03-04T10:25:46;101072.31;;;2.76;96.35
48077;BME280;33854;57.708;12.008;2023-03-04T10:28:17;101067.97;;;2.84;95.51
48077;BME280;33854;57.708;12.008;2023-03-04T10:33:29;101068.72;;;2.94;94.64
48077;BME280;33854;57.708;12.008;2023-03-04T10:38:33;101063.56;;;2.94;91.77
48077;BME280;33854;57.708;12.008;2023-03-04T10:41:00;101078.34;;;2.75;89.17
48077;BME280;33854;57.708;12.008;2023-03-04T10:43:25;101063.03;;;2.57;87.38
48077;BME280;33854;57.708;12.008;2023-03-04T10:45:57;101064.72;;;2.59;86.96
48077;BME280;33854;57.708;12.008;2023-03-04T10:48:25;101048.34;;;2.65;86.47
48077;BME280;33854;57.708;12.008;2023-03-04T10:50:51;101066.41;;;2.62;85.92
48077;BME280;33854;57.708;12.008;2023-03-04T10:53:30;101063.03;;;2.58;84.22
48077;BME280;33854;57.708;12.008;2023-03-04T10:55:58;101050.19;;;2.51;84.22
48077;BME280;33854;57.708;12.008;2023-03-04T10:58:24;101057.84;;;2.60;82.25
48077;BME280;33854;57.708;12.008;2023-03-04T11:01:19;101064.69;;;2.67;82.90
48077;BME280;33854;57.708;12.008;2023-03-04T11:03:50;101056.09;;;2.66;83.54
48077;BME280;33854;57.708;12.008;2023-03-04T11:06:19;101058.53;;;2.78;84.82
48077;BME280;33854;57.708;12.008;2023-03-04T11:08:56;101046.50;;;2.79;82.61
48077;BME280;33854;57.708;12.008;2023-03-04T11:11:38;101058.47;;;2.84;80.95
48077;BME280;33854;57.708;12.008;2023-03-04T11:14:22;101049.94;;;2.84;81.29
48077;BME280;33854;57.708;12.008;2023-03-04T11:16:54;101062.88;;;2.78;79.72
48077;BME280;33854;57.708;12.008;2023-03-04T11:19:21;101051.75;;;2.70;79.18
48077;BME280;33854;57.708;12.008;2023-03-04T11:21:50;101045.66;;;2.80;79.31
48077;BME280;33854;57.708;12.008;2023-03-04T11:24:18;101046.53;;;2.77;77.16
48077;BME280;33854;57.708;12.008;2023-03-04T11:26:50;101047.44;;;2.73;77.22
48077;BME280;33854;57.708;12.008;2023-03-04T11:32:08;101039.56;;;2.88;76.66
48077;BME280;33854;57.708;12.008;2023-03-04T11:37:14;101043.66;;;3.09;72.74
48077;BME280;33854;57.708;12.008;2023-03-04T11:39:48;101028.22;;;3.03;70.59
48077;BME280;33854;57.708;12.008;2023-03-04T11:45:11;101033.44;;;2.97;65.20
48077;BME280;33854;57.708;12.008;2023-03-04T11:50:34;101034.25;;;3.04;64.46
48077;BME280;33854;57.708;12.008;2023-03-04T11:53:48;101025.75;;;2.94;60.47
48077;BME280;33854;57.708;12.008;2023-03-04T11:56:30;101024.84;;;2.97;61.04
48077;BME280;33854;57.708;12.008;2023-03-04T12:01:40;101033.25;;;3.17;59.29
48077;BME280;33854;57.708;12.008;2023-03-04T12:04:16;101030.63;;;3.20;57.69
48077;BME280;33854;57.708;12.008;2023-03-04T12:07:04;101026.66;;;3.62;57.06
48077;BME280;33854;57.708;12.008;2023-03-04T12:23:15;100983.00;;;5.45;47.19
48077;BME280;33854;57.708;12.008;2023-03-04T12:25:50;100980.81;;;5.67;45.80
48077;BME280;33854;57.708;12.008;2023-03-04T12:44:30;100967.66;;;7.13;42.21
48077;BME280;33854;57.708;12.008;2023-03-04T12:49:59;100972.03;;;6.46;40.36
48077;BME280;33854;57.708;12.008;2023-03-04T12:52:43;100963.22;;;6.53;40.19
48077;BME280;33854;57.708;12.008;2023-03-04T12:55:16;100960.63;;;6.53;39.37
48077;BME280;33854;57.708;12.008;2023-03-04T12:57:43;100952.66;;;6.93;39.40
48077;BME280;33854;57.708;12.008;2023-03-04T13:06:11;100936.06;;;7.57;38.25
48077;BME280;33854;57.708;12.008;2023-03-04T13:19:57;100932.47;;;7.61;37.51
48077;BME280;33854;57.708;12.008;2023-03-04T13:51:28;100902.13;;;7.63;47.00
48077;BME280;33854;57.708;12.008;2023-03-04T13:59:31;100913.38;;;8.42;44.88
48077;BME280;33854;57.708;12.008;2023-03-04T14:01:59;100911.31;;;7.99;45.62
48077;BME280;33854;57.708;12.008;2023-03-04T14:04:26;100929.03;;;7.88;45.48
48077;BME280;33854;57.708;12.008;2023-03-04T14:06:54;100894.72;;;8.03;45.63
48077;BME280;33854;57.708;12.008;2023-03-04T14:09:25;100897.22;;;8.33;44.61
48077;BME280;33854;57.708;12.008;2023-03-04T14:11:55;100898.41;;;8.49;43.60
48077;BME280;33854;57.708;12.008;2023-03-04T14:14:25;100879.06;;;8.56;42.05
48077;BME280;33854;57.708;12.008;2023-03-04T14:16:58;100875.97;;;8.70;42.40
48077;BME280;33854;57.708;12.008;2023-03-04T14:19:32;100879.50;;;9.15;42.28
48077;BME280;33854;57.708;12.008;2023-03-04T14:22:16;100839.13;;;9.27;42.13
48077;BME280;33854;57.708;12.008;2023-03-04T14:25:03;100869.00;;;9.40;40.49
48077;BME280;33854;57.708;12.008;2023-03-04T14:27:32;100875.78;;;9.44;41.37
48077;BME280;33854;57.708;12.008;2023-03-04T14:30:01;100843.72;;;9.42;41.33
48077;BME280;33854;57.708;12.008;2023-03-04T14:32:28;100863.78;;;9.83;40.59
48077;BME280;33854;57.708;12.008;2023-03-04T14:34:58;100865.28;;;9.89;39.37
48077;BME280;33854;57.708;12.008;2023-03-04T14:40:33;100850.03;;;10.00;39.13
48077;BME280;33854;57.708;12.008;2023-03-04T14:43:04;100861.41;;;10.19;37.72
48077;BME280;33854;57.708;12.008;2023-03-04T14:45:31;100838.75;;;10.21;37.77
48077;BME280;33854;57.708;12.008;2023-03-04T14:48:03;100840.97;;;10.69;38.01
48077;BME280;33854;57.708;12.008;2023-03-04T14:50:30;100863.69;;;10.85;36.80